Carcroft, United Kingdom
Current Conditions -  °F | °C
As of 2:20 PM on Monday 26 Jan 2015 (Local Time) from EGCN Reporting Station
Few Clouds Few Clouds  
Wind Chill: 39°   Ceiling: Unl
Heat Index: 46°   Visibility: 6mi
Dew Point: 36°   Wind: 21mph
Humidity: 66%   Direction: 280°W
Pressure: 30.18"   Gusts: NA
Location:  53.58°N, 1.18°W
Report Text: EGCN 261420Z 28018KT 9999 FEW029 08/02 Q1022
Loading
Personal Weather Stations






























Interactive Weather Map New forecast layout! Learn more

10-Day Weather Forecast

Advertisements
Track Severe Weather on mobile